createdAt,value
2023-03-07T00:00:00.708Z,10.30
2023-03-07T00:00:33.603Z,11.48
2023-03-07T00:01:06.155Z,12.63
2023-03-07T00:01:38.059Z,10.90
2023-03-07T00:02:10.931Z,10.68
2023-03-07T00:02:42.893Z,11.60
2023-03-07T00:03:16.798Z,10.15
2023-03-07T00:03:48.704Z,11.18
2023-03-07T00:04:21.565Z,11.00
2023-03-07T00:04:53.491Z,11.43
2023-03-07T00:05:25.695Z,10.95
2023-03-07T00:06:03.862Z,10.68
2023-03-07T00:06:35.699Z,10.23
2023-03-07T00:07:07.565Z,11.23
2023-03-07T00:07:40.400Z,10.45
2023-03-07T00:08:12.623Z,10.02
2023-03-07T00:08:44.564Z,9.77
2023-03-07T00:09:17.531Z,10.63
2023-03-07T00:09:49.412Z,10.98
2023-03-07T00:10:21.363Z,11.75
2023-03-07T00:10:54.275Z,11.60
2023-03-07T00:11:26.840Z,10.85
2023-03-07T00:11:59.688Z,10.88
2023-03-07T00:12:31.515Z,12.48
2023-03-07T00:13:04.060Z,11.27
2023-03-07T00:13:38.996Z,11.80
2023-03-07T00:14:11.188Z,12.88
2023-03-07T00:14:43.103Z,10.93
2023-03-07T00:15:16.128Z,11.20
2023-03-07T00:15:48.041Z,10.52
2023-03-07T00:16:21.997Z,10.90
2023-03-07T00:16:54.885Z,10.82
2023-03-07T00:17:26.764Z,11.95
2023-03-07T00:17:58.734Z,10.18
2023-03-07T00:18:30.788Z,11.18
2023-03-07T00:19:03.644Z,11.05
2023-03-07T00:19:35.499Z,11.63
2023-03-07T00:20:10.904Z,11.35
2023-03-07T00:20:44.343Z,10.25
2023-03-07T00:21:19.231Z,11.10
2023-03-07T00:21:52.161Z,9.85
2023-03-07T00:22:24.004Z,10.52
2023-03-07T00:22:55.858Z,11.32
2023-03-07T00:23:28.773Z,11.73
2023-03-07T00:24:00.703Z,11.10
2023-03-07T00:24:32.548Z,11.85
2023-03-07T00:25:06.448Z,10.98
2023-03-07T00:25:38.334Z,10.38
2023-03-07T00:26:13.702Z,10.68
2023-03-07T00:26:46.610Z,11.15
2023-03-07T00:27:18.456Z,10.98
2023-03-07T00:27:50.306Z,11.70
2023-03-07T00:28:23.464Z,11.82
2023-03-07T00:28:55.835Z,10.70
2023-03-07T00:29:27.918Z,10.63
2023-03-07T00:30:00.865Z,11.40
2023-03-07T00:30:32.715Z,10.70
2023-03-07T00:31:07.135Z,11.30
2023-03-07T00:31:40.150Z,10.20
2023-03-07T00:32:12.136Z,10.82
2023-03-07T00:32:44.109Z,11.32
2023-03-07T00:33:17.081Z,11.27
2023-03-07T00:33:49.671Z,11.85
2023-03-07T00:34:21.497Z,10.68
2023-03-07T00:34:54.434Z,10.65
2023-03-07T00:35:26.492Z,9.82
2023-03-07T00:35:59.864Z,9.68
2023-03-07T00:36:34.205Z,11.50
2023-03-07T00:37:06.155Z,10.77
2023-03-07T00:37:38.535Z,10.45
2023-03-07T00:38:10.368Z,11.23
2023-03-07T00:38:43.732Z,10.48
2023-03-07T00:39:15.755Z,10.60
2023-03-07T00:40:20.392Z,10.32
2023-03-07T00:41:00.098Z,11.35
2023-03-07T00:41:31.949Z,11.20
2023-03-07T00:42:05.056Z,10.32
2023-03-07T00:42:36.918Z,10.80
2023-03-07T00:43:08.773Z,10.23
2023-03-07T00:43:42.032Z,10.50
2023-03-07T00:44:13.875Z,10.27
2023-03-07T00:44:45.734Z,11.00
2023-03-07T00:45:18.566Z,11.38
2023-03-07T00:45:50.539Z,13.02
2023-03-07T00:46:24.373Z,11.60
2023-03-07T00:46:57.485Z,10.27
2023-03-07T00:47:29.341Z,10.85
2023-03-07T00:48:01.228Z,11.55
2023-03-07T00:48:35.014Z,10.75
2023-03-07T00:49:06.905Z,11.73
2023-03-07T00:49:38.768Z,10.73
2023-03-07T00:50:12.295Z,11.68
2023-03-07T00:50:44.163Z,10.90
2023-03-07T00:51:17.912Z,11.00
2023-03-07T00:51:51.276Z,11.55
2023-03-07T00:52:24.161Z,11.00
2023-03-07T00:52:56.031Z,10.68
2023-03-07T00:53:28.071Z,10.75
2023-03-07T00:54:01.433Z,10.80
2023-03-07T00:54:33.348Z,10.50
2023-03-07T00:55:06.148Z,11.07
2023-03-07T00:55:37.997Z,10.85
2023-03-07T00:56:15.219Z,10.43
2023-03-07T00:56:47.117Z,10.98
2023-03-07T00:57:19.922Z,10.75
2023-03-07T00:57:51.739Z,9.90
2023-03-07T00:58:23.736Z,10.70
2023-03-07T00:58:56.560Z,10.25
2023-03-07T00:59:28.441Z,11.65
2023-03-07T01:00:00.311Z,11.05
2023-03-07T01:00:32.223Z,10.85
2023-03-07T01:01:06.977Z,11.40
2023-03-07T01:01:38.895Z,10.95
2023-03-07T01:02:10.747Z,11.18
2023-03-07T01:02:43.592Z,10.15
2023-03-07T01:03:15.671Z,10.57
2023-03-07T01:03:49.661Z,11.13
2023-03-07T01:04:22.681Z,11.18
2023-03-07T01:04:54.606Z,10.43
2023-03-07T01:05:26.419Z,10.73
2023-03-07T01:06:02.682Z,10.07
2023-03-07T01:06:35.111Z,11.52
2023-03-07T01:07:09.338Z,10.55
2023-03-07T01:07:41.167Z,10.20
2023-03-07T01:08:13.202Z,10.80
2023-03-07T01:08:46.389Z,10.35
2023-03-07T01:09:18.271Z,10.45
2023-03-07T01:09:51.266Z,11.07
2023-03-07T01:10:24.101Z,10.80
2023-03-07T01:10:58.909Z,10.35
2023-03-07T01:11:31.849Z,10.70
2023-03-07T01:12:07.162Z,10.88
2023-03-07T01:12:39.091Z,10.63
2023-03-07T01:13:11.781Z,10.18
2023-03-07T01:13:44.913Z,10.63
2023-03-07T01:14:16.829Z,10.27
2023-03-07T01:14:50.619Z,10.98
2023-03-07T01:15:23.060Z,10.45
2023-03-07T01:15:55.929Z,9.70
2023-03-07T01:16:30.204Z,10.50
2023-03-07T01:17:02.218Z,12.57
2023-03-07T01:17:35.091Z,11.13
2023-03-07T01:18:08.449Z,12.15
2023-03-07T01:18:40.770Z,10.82
2023-03-07T01:19:13.902Z,11.02
2023-03-07T01:19:45.766Z,10.80
2023-03-07T01:20:17.942Z,10.85
2023-03-07T01:20:49.779Z,9.45
2023-03-07T01:21:24.394Z,9.77
2023-03-07T01:21:56.259Z,10.73
2023-03-07T01:22:31.251Z,12.30
2023-03-07T01:23:04.883Z,10.18
2023-03-07T01:23:36.718Z,10.95
2023-03-07T01:24:12.296Z,11.13
2023-03-07T01:24:45.150Z,11.30
2023-03-07T01:25:17.086Z,11.93
2023-03-07T01:25:49.532Z,10.98
2023-03-07T01:26:23.854Z,9.23
2023-03-07T01:26:55.696Z,11.70
2023-03-07T01:27:27.556Z,10.63
2023-03-07T01:28:00.389Z,10.93
2023-03-07T01:28:32.251Z,10.85
2023-03-07T01:29:06.048Z,10.82
2023-03-07T01:29:38.957Z,11.18
2023-03-07T01:30:11.696Z,10.50
2023-03-07T01:30:43.648Z,10.00
2023-03-07T01:31:16.499Z,10.10
2023-03-07T01:31:48.448Z,10.57
2023-03-07T01:32:20.305Z,10.23
2023-03-07T01:32:56.841Z,10.45
2023-03-07T01:33:28.736Z,11.57
2023-03-07T01:34:02.207Z,9.70
2023-03-07T01:34:35.232Z,10.10
2023-03-07T01:35:07.868Z,11.05
2023-03-07T01:35:40.475Z,10.98
2023-03-07T01:36:19.431Z,9.60
2023-03-07T01:36:51.480Z,11.32
2023-03-07T01:37:23.568Z,10.07
2023-03-07T01:37:57.976Z,9.98
2023-03-07T01:38:33.837Z,9.88
2023-03-07T01:39:07.962Z,9.70
2023-03-07T01:39:40.892Z,8.55
2023-03-07T01:40:13.499Z,9.63
2023-03-07T01:40:45.336Z,10.55
2023-03-07T01:41:18.412Z,11.32
2023-03-07T01:41:50.381Z,9.80
2023-03-07T01:42:22.399Z,9.15
2023-03-07T01:42:55.310Z,10.25
2023-03-07T01:43:28.957Z,9.82
2023-03-07T01:44:02.295Z,10.50
2023-03-07T01:45:00.405Z,10.23
2023-03-07T01:46:18.257Z,9.80
2023-03-07T01:46:53.125Z,9.80
2023-03-07T01:47:25.075Z,9.10
2023-03-07T01:47:56.907Z,9.15
2023-03-07T01:48:28.898Z,9.60
2023-03-07T01:49:07.355Z,10.35
2023-03-07T01:49:42.603Z,9.63
2023-03-07T01:50:18.732Z,10.35
2023-03-07T01:50:50.695Z,9.63
2023-03-07T01:51:23.218Z,10.50
2023-03-07T01:52:00.995Z,10.35
2023-03-07T01:52:34.853Z,9.80
2023-03-07T01:53:09.552Z,9.15
2023-03-07T01:53:41.588Z,10.55
2023-03-07T01:54:18.252Z,10.68
2023-03-07T01:54:53.961Z,9.82
2023-03-07T01:55:29.764Z,8.00
2023-03-07T01:56:02.714Z,9.80
2023-03-07T01:56:35.717Z,9.32
2023-03-07T01:57:09.540Z,9.30
2023-03-07T01:57:43.274Z,8.85
2023-03-07T01:58:15.623Z,9.25
2023-03-07T01:58:47.743Z,9.10
2023-03-07T01:59:26.477Z,10.50
2023-03-07T02:00:01.308Z,9.07
2023-03-07T02:00:36.208Z,8.57
2023-03-07T02:01:13.558Z,9.68
2023-03-07T02:01:45.540Z,9.23
2023-03-07T02:02:22.714Z,8.25
2023-03-07T02:03:02.691Z,9.50
2023-03-07T02:03:39.910Z,9.80
2023-03-07T02:04:17.999Z,9.52
2023-03-07T02:04:53.886Z,9.18
2023-03-07T02:05:32.241Z,8.85
2023-03-07T02:06:09.564Z,9.73
2023-03-07T02:06:41.429Z,8.65
2023-03-07T02:07:15.170Z,9.13
2023-03-07T02:07:50.807Z,10.20
2023-03-07T02:08:27.500Z,8.27
2023-03-07T02:09:01.454Z,10.05
2023-03-07T02:09:35.183Z,8.82
2023-03-07T02:10:08.452Z,9.77
2023-03-07T02:10:42.475Z,8.90
2023-03-07T02:11:14.536Z,9.10
2023-03-07T02:11:47.447Z,8.95
2023-03-07T02:12:23.007Z,9.07
2023-03-07T02:12:55.081Z,9.90
2023-03-07T02:13:27.079Z,9.73
2023-03-07T02:13:59.226Z,9.80
2023-03-07T02:14:32.134Z,8.63
2023-03-07T02:15:04.743Z,9.98
2023-03-07T02:15:37.257Z,9.70
2023-03-07T02:16:10.429Z,8.60
2023-03-07T02:16:42.844Z,8.80
2023-03-07T02:17:14.777Z,9.93
2023-03-07T02:17:48.475Z,9.90
2023-03-07T02:18:24.416Z,9.90
2023-03-07T02:18:56.748Z,9.23
2023-03-07T02:19:45.662Z,9.70
2023-03-07T02:20:31.800Z,10.20
2023-03-07T02:21:09.318Z,8.55
2023-03-07T02:21:49.680Z,10.38
2023-03-07T02:22:21.574Z,8.93
2023-03-07T02:22:54.710Z,9.15
2023-03-07T02:23:35.973Z,8.38
2023-03-07T02:24:17.836Z,8.95
2023-03-07T02:24:53.259Z,8.77
2023-03-07T02:25:32.354Z,9.55
2023-03-07T02:26:12.057Z,9.70
2023-03-07T02:26:46.411Z,7.93
2023-03-07T02:27:19.443Z,9.10
2023-03-07T02:27:53.946Z,8.95
2023-03-07T02:28:26.887Z,10.10
2023-03-07T02:28:59.793Z,8.43
2023-03-07T02:29:32.739Z,9.02
2023-03-07T02:30:05.530Z,8.80
2023-03-07T02:30:37.732Z,9.13
2023-03-07T02:31:11.603Z,9.13
2023-03-07T02:31:43.620Z,8.68
2023-03-07T02:32:15.714Z,8.90
2023-03-07T02:32:48.634Z,9.30
2023-03-07T02:33:24.717Z,9.23
2023-03-07T02:33:56.583Z,8.57
2023-03-07T02:34:31.243Z,9.75
2023-03-07T02:35:10.344Z,8.05
2023-03-07T02:35:43.267Z,8.68
2023-03-07T02:36:18.906Z,9.52
2023-03-07T02:36:54.548Z,9.00
2023-03-07T02:37:31.481Z,8.80
2023-03-07T02:38:05.741Z,8.75
2023-03-07T02:38:39.972Z,9.45
2023-03-07T02:39:12.358Z,9.35
2023-03-07T02:39:46.562Z,10.45
2023-03-07T02:40:23.252Z,10.27
2023-03-07T02:40:56.648Z,8.68
2023-03-07T02:41:32.969Z,8.90
2023-03-07T02:42:11.139Z,9.70
2023-03-07T02:42:44.022Z,9.80
2023-03-07T02:43:16.419Z,10.23
2023-03-07T02:43:49.271Z,9.80
2023-03-07T02:44:21.198Z,7.95
2023-03-07T02:44:57.874Z,8.75
2023-03-07T02:45:30.801Z,9.38
2023-03-07T02:46:02.786Z,9.32
2023-03-07T02:46:34.904Z,9.15
2023-03-07T02:47:09.751Z,9.20
2023-03-07T02:47:42.272Z,7.93
2023-03-07T02:48:14.284Z,8.02
2023-03-07T02:48:47.206Z,8.93
2023-03-07T02:49:19.156Z,8.52
2023-03-07T02:49:51.051Z,9.75
2023-03-07T02:50:22.883Z,8.95
2023-03-07T02:50:55.913Z,8.27
2023-03-07T02:51:27.777Z,9.27
2023-03-07T02:52:00.640Z,9.60
2023-03-07T02:52:33.572Z,9.80
2023-03-07T02:53:05.405Z,9.02
2023-03-07T02:53:37.324Z,10.95
2023-03-07T02:54:10.708Z,10.25
2023-03-07T02:54:42.523Z,9.13
2023-03-07T02:55:14.360Z,8.85
2023-03-07T02:55:47.270Z,8.40
2023-03-07T02:56:19.154Z,8.25
2023-03-07T02:56:51.036Z,8.02
2023-03-07T02:57:25.389Z,9.07
2023-03-07T02:57:57.447Z,7.88
2023-03-07T02:58:29.280Z,8.55
2023-03-07T02:59:01.167Z,9.52
2023-03-07T02:59:33.987Z,9.55
2023-03-07T03:00:07.574Z,9.70
2023-03-07T03:00:39.544Z,8.43
2023-03-07T03:01:12.619Z,9.32
2023-03-07T03:01:44.527Z,8.48
2023-03-07T03:02:16.528Z,8.95
2023-03-07T03:02:49.378Z,9.27
2023-03-07T03:03:21.393Z,9.90
2023-03-07T03:03:53.393Z,7.88
2023-03-07T03:04:26.281Z,8.93
2023-03-07T03:04:58.203Z,7.93
2023-03-07T03:05:30.105Z,9.52
2023-03-07T03:06:02.950Z,9.20
2023-03-07T03:06:34.769Z,8.68
2023-03-07T03:07:06.867Z,7.60
2023-03-07T03:07:38.762Z,8.82
2023-03-07T03:08:12.631Z,9.40
2023-03-07T03:08:44.642Z,9.50
2023-03-07T03:09:16.846Z,9.70
2023-03-07T03:09:49.663Z,10.25
2023-03-07T03:10:21.780Z,8.75
2023-03-07T03:10:53.857Z,8.77
2023-03-07T03:11:26.715Z,7.95
2023-03-07T03:11:58.902Z,8.80
2023-03-07T03:12:32.145Z,8.13
2023-03-07T03:13:05.522Z,8.20
2023-03-07T03:13:39.014Z,9.13
2023-03-07T03:14:11.077Z,8.20
2023-03-07T03:14:43.941Z,9.05
2023-03-07T03:15:15.884Z,8.55
2023-03-07T03:15:48.419Z,8.55
2023-03-07T03:16:21.318Z,8.50
2023-03-07T03:16:53.736Z,9.18
2023-03-07T03:17:25.619Z,9.02
2023-03-07T03:17:58.492Z,8.45
2023-03-07T03:18:31.016Z,9.90
2023-03-07T03:19:03.539Z,9.13
2023-03-07T03:19:36.478Z,8.77
2023-03-07T03:20:11.775Z,9.60
2023-03-07T03:20:43.630Z,9.13
2023-03-07T03:21:16.456Z,9.23
2023-03-07T03:21:48.706Z,9.20
2023-03-07T03:22:20.746Z,9.60
2023-03-07T03:22:53.764Z,8.70
2023-03-07T03:23:28.062Z,9.90
2023-03-07T03:24:05.046Z,9.35
2023-03-07T03:24:39.643Z,7.63
2023-03-07T03:25:13.338Z,8.68
2023-03-07T03:25:45.215Z,9.38
2023-03-07T03:26:18.410Z,8.38
2023-03-07T03:26:50.266Z,9.10
2023-03-07T03:27:22.147Z,7.82
2023-03-07T03:27:56.375Z,9.30
2023-03-07T03:28:29.047Z,9.70
2023-03-07T03:29:01.124Z,8.55
2023-03-07T03:29:34.231Z,8.25
2023-03-07T03:30:08.852Z,9.45
2023-03-07T03:30:40.741Z,10.13
2023-03-07T03:31:15.231Z,8.52
2023-03-07T03:31:47.211Z,9.32
2023-03-07T03:32:19.094Z,10.02
2023-03-07T03:32:52.055Z,8.82
2023-03-07T03:33:23.988Z,9.32
2023-03-07T03:33:55.944Z,8.70
2023-03-07T03:34:28.803Z,7.85
2023-03-07T03:35:00.798Z,8.30
2023-03-07T03:35:33.452Z,8.50
2023-03-07T03:36:10.420Z,9.00
2023-03-07T03:36:43.312Z,8.93
2023-03-07T03:37:15.337Z,8.50
2023-03-07T03:37:47.213Z,8.95
2023-03-07T03:38:19.098Z,8.90
2023-03-07T03:38:53.606Z,8.50
2023-03-07T03:39:25.620Z,8.57
2023-03-07T03:39:57.475Z,8.43
2023-03-07T03:40:31.106Z,8.25
2023-03-07T03:41:05.578Z,7.50
2023-03-07T03:41:37.586Z,8.52
2023-03-07T03:42:10.432Z,8.38
2023-03-07T03:42:42.701Z,9.38
2023-03-07T03:43:16.121Z,9.02
2023-03-07T03:43:48.056Z,8.20
2023-03-07T03:44:20.928Z,9.15
2023-03-07T03:44:52.764Z,10.13
2023-03-07T03:45:24.637Z,9.23
2023-03-07T03:45:58.407Z,8.80
2023-03-07T03:46:30.314Z,7.35
2023-03-07T03:47:02.307Z,7.95
2023-03-07T03:47:35.153Z,8.45
2023-03-07T03:48:07.333Z,8.35
2023-03-07T03:48:39.448Z,8.20
2023-03-07T03:49:13.956Z,8.13
2023-03-07T03:49:45.842Z,7.88
2023-03-07T03:50:17.866Z,7.82
2023-03-07T03:50:50.769Z,8.35
2023-03-07T03:51:23.861Z,8.90
2023-03-07T03:51:55.750Z,8.07
2023-03-07T03:52:28.736Z,8.38
2023-03-07T03:53:00.711Z,7.40
2023-03-07T03:53:33.266Z,8.25
2023-03-07T03:54:06.226Z,8.48
2023-03-07T03:54:38.146Z,9.13
2023-03-07T03:55:10.416Z,7.95
2023-03-07T03:55:43.393Z,8.80
2023-03-07T03:56:17.821Z,9.00
2023-03-07T03:56:49.692Z,8.40
2023-03-07T03:57:22.527Z,8.80
2023-03-07T03:57:54.387Z,8.35
2023-03-07T03:58:27.716Z,8.23
2023-03-07T03:59:00.626Z,8.38
2023-03-07T03:59:32.603Z,7.85
2023-03-07T04:00:05.514Z,9.35
2023-03-07T04:00:38.475Z,8.15
2023-03-07T04:01:11.957Z,9.60
2023-03-07T04:01:43.928Z,9.45
2023-03-07T04:02:17.986Z,8.13
2023-03-07T04:02:50.008Z,8.70
2023-03-07T04:03:21.998Z,8.15
2023-03-07T04:03:54.555Z,9.18
2023-03-07T04:04:27.499Z,8.70
2023-03-07T04:04:59.389Z,7.70
2023-03-07T04:05:33.894Z,8.10
2023-03-07T04:06:08.983Z,8.45
2023-03-07T04:06:40.901Z,8.73
2023-03-07T04:07:12.802Z,8.18
2023-03-07T04:07:45.693Z,9.38
2023-03-07T04:08:17.566Z,8.43
2023-03-07T04:08:50.312Z,8.48
2023-03-07T04:09:23.187Z,8.80
2023-03-07T04:09:55.067Z,9.02
2023-03-07T04:10:27.044Z,7.57
2023-03-07T04:10:59.012Z,8.20
2023-03-07T04:11:31.914Z,8.23
2023-03-07T04:12:04.008Z,9.50
2023-03-07T04:12:36.126Z,8.10
2023-03-07T04:13:07.984Z,8.90
2023-03-07T04:13:42.242Z,8.35
2023-03-07T04:14:14.095Z,7.88
2023-03-07T04:14:46.225Z,7.90
2023-03-07T04:15:19.046Z,9.02
2023-03-07T04:15:52.057Z,8.75
2023-03-07T04:16:23.950Z,9.52
2023-03-07T04:16:56.791Z,8.82
2023-03-07T04:17:28.664Z,9.60
2023-03-07T04:18:00.602Z,9.40
2023-03-07T04:18:32.687Z,9.27
2023-03-07T04:19:05.656Z,8.82
2023-03-07T04:19:38.247Z,9.00
2023-03-07T04:20:17.285Z,8.82
2023-03-07T04:20:50.937Z,8.25
2023-03-07T04:21:23.236Z,8.07
2023-03-07T04:21:55.109Z,9.05
2023-03-07T04:22:27.995Z,8.32
2023-03-07T04:22:59.908Z,7.70
2023-03-07T04:23:32.800Z,8.93
2023-03-07T04:24:06.134Z,8.07
2023-03-07T04:24:38.026Z,8.55
2023-03-07T04:25:10.458Z,8.10
2023-03-07T04:25:48.449Z,9.35
2023-03-07T04:26:20.317Z,8.05
2023-03-07T04:26:52.169Z,8.23
2023-03-07T04:27:25.095Z,8.13
2023-03-07T04:27:57.299Z,8.25
2023-03-07T04:28:41.699Z,8.70
2023-03-07T04:29:15.946Z,8.07
2023-03-07T04:29:47.826Z,8.98
2023-03-07T04:30:20.002Z,8.50
2023-03-07T04:30:53.446Z,8.98
2023-03-07T04:31:27.729Z,7.72
2023-03-07T04:32:00.015Z,8.23
2023-03-07T04:32:33.099Z,8.10
2023-03-07T04:33:04.976Z,9.20
2023-03-07T04:33:36.864Z,9.02
2023-03-07T04:34:09.727Z,9.52
2023-03-07T04:34:41.659Z,8.23
2023-03-07T04:35:13.514Z,8.90
2023-03-07T04:35:46.880Z,7.93
2023-03-07T04:36:20.637Z,8.95
2023-03-07T04:36:52.498Z,7.90
2023-03-07T04:37:24.349Z,8.77
2023-03-07T04:37:57.200Z,8.38
2023-03-07T04:38:29.088Z,8.10
2023-03-07T04:39:00.937Z,8.95
2023-03-07T04:39:33.760Z,9.13
2023-03-07T04:40:06.638Z,7.22
2023-03-07T04:40:38.524Z,9.25
2023-03-07T04:41:13.836Z,9.10
2023-03-07T04:41:45.767Z,9.40
2023-03-07T04:42:17.828Z,9.40
2023-03-07T04:42:50.696Z,9.30
2023-03-07T04:43:22.613Z,8.90
2023-03-07T04:43:54.491Z,8.80
2023-03-07T04:44:28.722Z,8.98
2023-03-07T04:45:00.597Z,8.85
2023-03-07T04:45:34.651Z,8.98
2023-03-07T04:46:07.696Z,9.27
2023-03-07T04:46:40.098Z,9.15
2023-03-07T04:47:11.980Z,7.93
2023-03-07T04:47:44.997Z,8.00
2023-03-07T04:48:16.845Z,8.75
2023-03-07T04:48:48.727Z,8.65
2023-03-07T04:49:21.540Z,9.80
2023-03-07T04:49:53.430Z,8.40
2023-03-07T04:50:25.304Z,8.98
2023-03-07T04:50:58.388Z,8.40
2023-03-07T04:51:30.243Z,8.85
2023-03-07T04:52:02.115Z,8.82
2023-03-07T04:52:34.984Z,9.25
2023-03-07T04:53:06.848Z,9.10
2023-03-07T04:53:38.743Z,9.55
2023-03-07T04:54:12.429Z,9.13
2023-03-07T04:54:45.051Z,8.82
2023-03-07T04:55:17.100Z,8.90
2023-03-07T04:55:50.081Z,9.85
2023-03-07T04:56:21.950Z,8.70
2023-03-07T04:56:53.850Z,10.05
2023-03-07T04:57:26.689Z,8.15
2023-03-07T04:57:58.559Z,8.48
2023-03-07T04:58:31.499Z,9.23
2023-03-07T04:59:04.408Z,9.02
2023-03-07T04:59:39.415Z,8.77
2023-03-07T05:00:12.532Z,8.32
2023-03-07T05:00:45.735Z,9.25
2023-03-07T05:01:18.758Z,9.60
2023-03-07T05:01:50.819Z,8.05
2023-03-07T05:02:22.748Z,9.15
2023-03-07T05:02:57.292Z,10.10
2023-03-07T05:03:30.899Z,8.45
2023-03-07T05:04:02.868Z,9.35
2023-03-07T05:04:34.951Z,9.15
2023-03-07T05:05:08.366Z,8.88
2023-03-07T05:05:40.379Z,10.55
2023-03-07T05:06:14.831Z,8.52
2023-03-07T05:06:47.732Z,8.77
2023-03-07T05:07:19.623Z,10.05
2023-03-07T05:07:51.477Z,8.85
2023-03-07T05:08:24.331Z,8.88
2023-03-07T05:08:56.244Z,9.30
2023-03-07T05:09:29.199Z,10.30
2023-03-07T05:10:01.095Z,8.65
2023-03-07T05:10:33.641Z,9.40
2023-03-07T05:11:06.739Z,10.23
2023-03-07T05:11:38.579Z,8.93
2023-03-07T05:12:11.749Z,9.80
2023-03-07T05:12:43.658Z,9.13
2023-03-07T05:13:15.896Z,9.60
2023-03-07T05:13:48.771Z,9.63
2023-03-07T05:14:20.657Z,9.43
2023-03-07T05:14:53.896Z,9.63
2023-03-07T05:15:26.793Z,10.25
2023-03-07T05:15:59.626Z,10.45
2023-03-07T05:16:33.506Z,10.45
2023-03-07T05:17:05.461Z,9.00
2023-03-07T05:17:37.629Z,9.95
2023-03-07T05:18:10.507Z,9.05
2023-03-07T05:18:42.354Z,10.30
2023-03-07T05:19:14.261Z,9.77
2023-03-07T05:19:47.191Z,9.88
2023-03-07T05:20:19.426Z,9.73
2023-03-07T05:20:51.676Z,10.23
2023-03-07T05:21:24.558Z,8.88
2023-03-07T05:21:56.413Z,8.52
2023-03-07T05:22:28.264Z,10.25
2023-03-07T05:23:01.153Z,9.55
2023-03-07T05:23:33.054Z,10.20
2023-03-07T05:24:05.318Z,10.68
2023-03-07T05:24:38.196Z,9.98
2023-03-07T05:25:10.182Z,10.25
2023-03-07T05:25:43.520Z,9.80
2023-03-07T05:26:16.514Z,9.50
2023-03-07T05:26:48.412Z,9.75
2023-03-07T05:27:20.257Z,9.55
2023-03-07T05:27:53.128Z,9.70
2023-03-07T05:28:25.153Z,10.55
2023-03-07T05:28:56.991Z,9.77
2023-03-07T05:29:30.045Z,9.60
2023-03-07T05:30:03.860Z,10.43
2023-03-07T05:30:35.712Z,9.18
2023-03-07T05:31:08.649Z,9.30
2023-03-07T05:31:40.574Z,10.52
2023-03-07T05:32:12.519Z,10.32
2023-03-07T05:32:45.461Z,10.68
2023-03-07T05:33:17.523Z,12.15
2023-03-07T05:33:49.432Z,10.50
2023-03-07T05:34:22.349Z,10.88
2023-03-07T05:34:54.299Z,12.60
2023-03-07T05:35:26.236Z,10.35
2023-03-07T05:36:00.948Z,10.35
2023-03-07T05:36:32.887Z,10.45
2023-03-07T05:37:04.875Z,10.52
2023-03-07T05:37:36.871Z,9.20
2023-03-07T05:38:09.835Z,10.80
2023-03-07T05:38:41.760Z,10.80
2023-03-07T05:39:15.457Z,11.10
2023-03-07T05:39:47.381Z,8.98
2023-03-07T05:40:19.611Z,10.52
2023-03-07T05:40:52.463Z,9.40
2023-03-07T05:41:24.398Z,10.25
2023-03-07T05:41:56.272Z,9.98
2023-03-07T05:42:29.173Z,9.60
2023-03-07T05:43:01.168Z,10.00
2023-03-07T05:43:34.262Z,9.13
2023-03-07T05:44:06.229Z,10.18
2023-03-07T05:44:38.094Z,11.48
2023-03-07T05:45:13.130Z,8.32
2023-03-07T05:45:44.978Z,10.98
2023-03-07T05:46:17.945Z,9.80
2023-03-07T05:46:49.803Z,10.20
2023-03-07T05:47:21.700Z,10.68
2023-03-07T05:47:54.566Z,9.60
2023-03-07T05:48:26.501Z,10.98
2023-03-07T05:48:59.369Z,10.50
2023-03-07T05:49:31.255Z,9.98
2023-03-07T05:50:03.541Z,11.18
2023-03-07T05:50:37.959Z,9.18
2023-03-07T05:51:09.826Z,10.27
2023-03-07T05:51:41.709Z,10.35
2023-03-07T05:52:13.612Z,12.82
2023-03-07T05:52:46.444Z,10.88
2023-03-07T05:53:18.343Z,10.05
2023-03-07T05:53:50.247Z,10.55
2023-03-07T05:54:23.166Z,10.20
2023-03-07T05:54:55.238Z,9.60
2023-03-07T05:55:27.150Z,10.93
2023-03-07T05:56:00.013Z,11.35
2023-03-07T05:56:32.582Z,10.13
2023-03-07T05:57:04.517Z,9.88
2023-03-07T05:57:37.395Z,10.30
2023-03-07T05:58:09.353Z,11.00
2023-03-07T05:58:41.258Z,10.50
2023-03-07T05:59:15.536Z,9.90
2023-03-07T05:59:47.480Z,9.52
2023-03-07T06:00:22.058Z,11.75
2023-03-07T06:00:54.966Z,10.25
2023-03-07T06:01:26.886Z,10.75
2023-03-07T06:01:58.766Z,9.23
2023-03-07T06:02:31.678Z,11.02
2023-03-07T06:03:04.053Z,10.68
2023-03-07T06:03:36.004Z,10.63
2023-03-07T06:04:09.497Z,9.35
2023-03-07T06:04:41.450Z,9.50
2023-03-07T06:05:14.155Z,11.52
2023-03-07T06:05:50.058Z,9.57
2023-03-07T06:06:21.920Z,10.60
2023-03-07T06:06:54.784Z,10.85
2023-03-07T06:07:27.158Z,10.00
2023-03-07T06:07:58.976Z,9.50
2023-03-07T06:08:31.862Z,10.38
2023-03-07T06:09:05.591Z,10.65
2023-03-07T06:09:37.462Z,10.77
2023-03-07T06:10:13.184Z,10.10
2023-03-07T06:10:48.758Z,10.75
2023-03-07T06:11:21.067Z,9.40
2023-03-07T06:11:53.965Z,9.93
2023-03-07T06:12:25.844Z,9.93
2023-03-07T06:12:57.733Z,9.82
2023-03-07T06:13:31.052Z,10.52
2023-03-07T06:14:02.927Z,11.20
2023-03-07T06:14:34.779Z,10.30
2023-03-07T06:15:08.808Z,10.07
2023-03-07T06:15:42.150Z,10.15
2023-03-07T06:16:14.108Z,10.27
2023-03-07T06:16:47.010Z,9.90
2023-03-07T06:17:18.862Z,10.43
2023-03-07T06:17:52.474Z,9.70
2023-03-07T06:18:26.941Z,11.05
2023-03-07T06:18:58.810Z,10.63
2023-03-07T06:19:30.960Z,10.48
2023-03-07T06:20:04.228Z,11.60
2023-03-07T06:20:36.077Z,10.88
2023-03-07T06:21:09.823Z,9.30
2023-03-07T06:21:43.490Z,9.73
2023-03-07T06:22:15.365Z,10.75
2023-03-07T06:22:47.248Z,11.00
2023-03-07T06:23:20.092Z,9.52
2023-03-07T06:23:52.020Z,9.95
2023-03-07T06:24:23.857Z,10.75
2023-03-07T06:24:56.664Z,11.75
2023-03-07T06:25:28.560Z,10.48
2023-03-07T06:26:01.352Z,11.43
2023-03-07T06:26:34.518Z,10.00
2023-03-07T06:27:06.445Z,10.38
2023-03-07T06:27:38.919Z,10.25
2023-03-07T06:28:11.753Z,10.25
2023-03-07T06:28:43.669Z,10.40
2023-03-07T06:29:15.587Z,11.23
2023-03-07T06:29:48.465Z,12.07
2023-03-07T06:30:20.396Z,11.73
2023-03-07T06:30:53.830Z,11.77
2023-03-07T06:31:26.728Z,10.52
2023-03-07T06:31:59.350Z,10.30
2023-03-07T06:32:31.954Z,10.60
2023-03-07T06:33:04.954Z,10.18
2023-03-07T06:33:37.004Z,10.43
2023-03-07T06:34:08.874Z,10.45
2023-03-07T06:34:41.747Z,10.27
2023-03-07T06:35:13.614Z,10.23
2023-03-07T06:35:46.269Z,10.82
2023-03-07T06:36:20.192Z,11.82
2023-03-07T06:36:52.090Z,10.43
2023-03-07T06:37:24.375Z,11.15
2023-03-07T06:37:57.278Z,10.05
2023-03-07T06:38:29.126Z,11.10
2023-03-07T06:39:01.012Z,9.77
2023-03-07T06:39:33.849Z,10.70
2023-03-07T06:40:09.305Z,9.82
2023-03-07T06:40:42.413Z,13.48
2023-03-07T06:41:14.410Z,11.60
2023-03-07T06:41:46.954Z,10.13
2023-03-07T06:42:19.769Z,10.00
2023-03-07T06:42:52.662Z,11.77
2023-03-07T06:43:24.823Z,11.43
2023-03-07T06:43:59.397Z,11.75
2023-03-07T06:44:31.456Z,12.07
2023-03-07T06:45:03.881Z,9.90
2023-03-07T06:45:38.007Z,10.55
2023-03-07T06:46:11.696Z,10.13
2023-03-07T06:46:43.896Z,10.40
2023-03-07T06:47:16.780Z,10.20
2023-03-07T06:47:48.728Z,10.68
2023-03-07T06:48:20.906Z,10.65
2023-03-07T06:48:55.151Z,9.70
2023-03-07T06:49:27.131Z,11.70
2023-03-07T06:49:59.001Z,9.82
2023-03-07T06:50:35.374Z,11.02
2023-03-07T06:51:09.787Z,10.18
2023-03-07T06:51:42.612Z,10.75
2023-03-07T06:52:14.472Z,10.45
2023-03-07T06:52:46.322Z,10.52
2023-03-07T06:53:19.264Z,11.15
2023-03-07T06:53:51.120Z,11.50
2023-03-07T06:54:23.004Z,10.07
2023-03-07T06:54:55.848Z,11.15
2023-03-07T06:55:27.699Z,11.43
2023-03-07T06:55:59.574Z,9.80
2023-03-07T06:56:34.234Z,12.27
2023-03-07T06:57:06.281Z,11.20
2023-03-07T06:57:38.194Z,12.18
2023-03-07T06:58:11.069Z,10.88
2023-03-07T06:58:42.942Z,10.75
2023-03-07T06:59:15.890Z,10.60
2023-03-07T06:59:47.766Z,11.15
2023-03-07T07:00:20.403Z,10.57
2023-03-07T07:00:53.258Z,11.85
2023-03-07T07:01:26.478Z,10.55
2023-03-07T07:01:58.511Z,11.27
2023-03-07T07:02:31.541Z,10.15
2023-03-07T07:03:03.752Z,11.07
2023-03-07T07:03:35.692Z,11.13
2023-03-07T07:04:08.615Z,11.90
2023-03-07T07:04:40.539Z,13.20
2023-03-07T07:05:12.913Z,12.70
2023-03-07T07:05:45.785Z,11.30
2023-03-07T07:06:17.673Z,11.48
2023-03-07T07:06:49.513Z,11.35
2023-03-07T07:07:22.395Z,11.43
2023-03-07T07:07:54.892Z,11.13
2023-03-07T07:08:26.751Z,11.05
2023-03-07T07:09:00.333Z,12.88
2023-03-07T07:09:32.390Z,11.93
2023-03-07T07:10:04.976Z,11.85
2023-03-07T07:10:37.870Z,11.13
2023-03-07T07:11:09.863Z,11.45
2023-03-07T07:11:41.770Z,10.15
2023-03-07T07:12:14.633Z,11.63
2023-03-07T07:12:46.486Z,10.07
2023-03-07T07:13:18.327Z,10.45
2023-03-07T07:13:51.593Z,11.73